DAUH/HME METAR and TAF weather

Enter ICAO airport designator
Station Type Date Time Source
DAUH METAR 2019/12/11 17:30 UTC NOAA

DAUH 111730Z 22004KT CAVOK 13/M04 Q1020


Station Type Date Time Source
DAUH Decoded METAR 2019/12/11 17:30 UTC NOAA

Hassi-Messaoud, Algeria (DAUH) 31-40N 006-09E 142M
Dec 11, 2019 - 12:30 PM EST / 2019.12.11 1730 UTC
Wind: from the SW (220 degrees) at 5 MPH (4 KT):0
Visibility: greater than 7 mile(s):0
Temperature: 55 F (13 C)
Dew Point: 24 F (-4 C)
Relative Humidity: 30%
Pressure (altimeter): 30.12 in. Hg (1020 hPa)
ob: DAUH 111730Z 22004KT CAVOK 13/M04 Q1020
cycle: 17

Station Type Date Time Source
DAUH TAF 2019/12/11 18:33 UTC NOAA

TAF DAUH 111700Z 1118/1218 24010KT CAVOK
BECMG 1207/1209 34012KT PROB30
TEMPO 1210/1214 34015G25KT 5000 DRSA

Example: see airport list